createdAt,value
2023-04-09T00:00:35.642Z,46.60
2023-04-09T00:03:13.023Z,44.08
2023-04-09T00:05:43.120Z,42.85
2023-04-09T00:08:11.163Z,41.40
2023-04-09T00:10:40.837Z,36.88
2023-04-09T00:13:11.462Z,44.25
2023-04-09T00:15:39.544Z,48.05
2023-04-09T00:18:10.138Z,51.47
2023-04-09T00:20:39.538Z,54.60
2023-04-09T00:23:18.501Z,57.78
2023-04-09T00:25:46.650Z,56.47
2023-04-09T00:30:58.800Z,50.83
2023-04-09T00:33:29.631Z,55.55
2023-04-09T00:36:08.021Z,52.22
2023-04-09T00:38:35.977Z,50.95
2023-04-09T00:41:05.983Z,53.35
2023-04-09T00:43:34.787Z,50.90
2023-04-09T00:46:02.338Z,52.25
2023-04-09T00:48:30.785Z,49.60
2023-04-09T00:50:59.986Z,50.72
2023-04-09T00:53:36.318Z,49.53
2023-04-09T00:56:11.104Z,50.30
2023-04-09T00:58:39.715Z,51.55
2023-04-09T01:01:10.244Z,51.42
2023-04-09T01:03:39.148Z,48.55
2023-04-09T01:06:28.550Z,50.53
2023-04-09T01:12:01.309Z,49.92
2023-04-09T01:14:46.693Z,48.45
2023-04-09T01:17:42.101Z,49.63
2023-04-09T01:20:30.803Z,47.83
2023-04-09T01:23:19.365Z,48.65
2023-04-09T01:26:11.982Z,49.72
2023-04-09T01:28:52.707Z,46.95
2023-04-09T01:31:21.862Z,50.35
2023-04-09T01:33:49.242Z,47.08
2023-04-09T01:36:17.430Z,47.60
2023-04-09T01:38:46.643Z,49.72
2023-04-09T01:41:19.913Z,49.05
2023-04-09T01:43:57.628Z,49.03
2023-04-09T01:46:30.667Z,46.95
2023-04-09T01:49:01.039Z,48.45
2023-04-09T01:51:32.385Z,48.83
2023-04-09T01:54:01.443Z,51.88
2023-04-09T01:56:28.719Z,47.58
2023-04-09T01:58:56.087Z,46.95
2023-04-09T02:01:47.247Z,50.65
2023-04-09T02:04:31.312Z,49.60
2023-04-09T02:07:06.846Z,49.75
2023-04-09T02:09:36.661Z,47.28
2023-04-09T02:12:06.098Z,47.85
2023-04-09T02:14:33.986Z,47.47
2023-04-09T02:17:02.055Z,46.67
2023-04-09T02:19:56.478Z,45.13
2023-04-09T02:22:23.757Z,46.88
2023-04-09T02:24:51.215Z,45.33
2023-04-09T02:27:20.459Z,46.00
2023-04-09T02:29:49.515Z,48.00
2023-04-09T02:32:23.568Z,47.30
2023-04-09T02:34:52.598Z,47.17
2023-04-09T02:37:32.056Z,46.65
2023-04-09T02:40:06.806Z,47.10
2023-04-09T02:42:34.681Z,46.95
2023-04-09T02:45:02.608Z,44.35
2023-04-09T02:47:38.540Z,44.88
2023-04-09T02:50:07.906Z,43.85
2023-04-09T02:52:35.205Z,44.17
2023-04-09T02:55:02.613Z,44.75
2023-04-09T02:57:30.574Z,42.90
2023-04-09T02:59:57.883Z,45.95
2023-04-09T03:02:25.302Z,44.97
2023-04-09T03:04:53.294Z,45.20
2023-04-09T03:07:20.543Z,42.33
2023-04-09T03:09:47.811Z,42.17
2023-04-09T03:12:15.840Z,47.58
2023-04-09T03:14:43.114Z,45.15
2023-04-09T03:17:10.484Z,44.47
2023-04-09T03:19:37.791Z,44.50
2023-04-09T03:22:05.068Z,48.75
2023-04-09T03:24:33.582Z,49.30
2023-04-09T03:27:00.915Z,48.63
2023-04-09T03:29:28.234Z,45.78
2023-04-09T03:31:55.746Z,47.25
2023-04-09T03:34:24.521Z,46.13
2023-04-09T03:36:51.849Z,46.60
2023-04-09T03:39:19.347Z,50.00
2023-04-09T03:41:49.505Z,49.13
2023-04-09T03:44:16.862Z,46.42
2023-04-09T03:46:44.172Z,45.35
2023-04-09T03:49:11.566Z,47.97
2023-04-09T03:51:38.816Z,47.38
2023-04-09T03:54:06.157Z,46.17
2023-04-09T03:56:33.409Z,50.63
2023-04-09T03:59:00.993Z,50.80
2023-04-09T04:01:28.840Z,53.72
2023-04-09T04:03:57.175Z,54.95
2023-04-09T04:06:26.150Z,52.72
2023-04-09T04:08:54.130Z,55.70
2023-04-09T04:11:21.706Z,48.72
2023-04-09T04:13:49.141Z,48.40
2023-04-09T04:16:16.576Z,51.05
2023-04-09T04:18:43.960Z,50.20
2023-04-09T04:21:15.513Z,47.63
2023-04-09T04:23:42.986Z,50.38
2023-04-09T04:26:10.964Z,48.53
2023-04-09T04:28:39.216Z,51.53
2023-04-09T04:31:13.178Z,47.67
2023-04-09T04:33:42.034Z,49.80
2023-04-09T04:36:10.957Z,46.63
2023-04-09T04:38:38.646Z,49.60
2023-04-09T04:41:06.515Z,47.10
2023-04-09T04:43:34.065Z,50.90
2023-04-09T04:46:01.607Z,49.97
2023-04-09T04:48:29.756Z,51.28
2023-04-09T04:51:01.878Z,52.33
2023-04-09T04:53:29.432Z,50.05
2023-04-09T04:55:56.817Z,50.40
2023-04-09T04:58:24.989Z,52.80
2023-04-09T05:00:52.398Z,53.13
2023-04-09T05:03:19.841Z,50.22
2023-04-09T05:05:50.267Z,53.92
2023-04-09T05:08:17.610Z,49.67
2023-04-09T05:10:46.899Z,51.28
2023-04-09T05:13:14.272Z,55.00
2023-04-09T05:15:42.419Z,52.42
2023-04-09T05:18:09.892Z,53.53
2023-04-09T05:20:39.382Z,53.13
2023-04-09T05:23:06.748Z,58.13
2023-04-09T05:25:34.137Z,51.05
2023-04-09T05:28:01.530Z,54.55
2023-04-09T05:30:28.920Z,51.42
2023-04-09T05:32:56.312Z,50.60
2023-04-09T05:35:23.787Z,52.20
2023-04-09T05:37:51.166Z,53.85
2023-04-09T05:40:18.540Z,53.75
2023-04-09T05:42:49.370Z,52.50
2023-04-09T05:45:16.760Z,57.05
2023-04-09T05:47:44.139Z,51.53
2023-04-09T05:50:11.846Z,56.78
2023-04-09T05:52:39.483Z,59.17
2023-04-09T05:55:10.654Z,59.20
2023-04-09T05:57:38.116Z,56.30
2023-04-09T06:00:17.072Z,55.40
2023-04-09T06:02:45.610Z,56.17
2023-04-09T06:05:20.720Z,60.72
2023-04-09T06:07:48.336Z,55.45
2023-04-09T06:10:15.867Z,62.35
2023-04-09T06:12:43.320Z,58.13
2023-04-09T06:15:11.306Z,58.40
2023-04-09T06:17:46.649Z,56.08
2023-04-09T06:20:14.239Z,59.80
2023-04-09T06:22:44.380Z,58.35
2023-04-09T06:25:12.219Z,62.08
2023-04-09T06:27:42.240Z,64.13
2023-04-09T06:30:10.605Z,60.00
2023-04-09T06:32:51.056Z,63.15
2023-04-09T06:35:21.447Z,67.18
2023-04-09T06:37:48.991Z,67.35
2023-04-09T06:40:16.553Z,62.90
2023-04-09T06:42:43.990Z,70.30
2023-04-09T06:45:11.791Z,69.70
2023-04-09T06:47:39.236Z,73.88
2023-04-09T06:50:07.135Z,78.53
2023-04-09T06:52:34.495Z,74.28
2023-04-09T06:55:01.858Z,74.78
2023-04-09T06:57:29.293Z,78.65
2023-04-09T06:59:56.607Z,79.20
2023-04-09T07:02:24.229Z,79.07
2023-04-09T07:05:13.068Z,82.25
2023-04-09T07:07:42.841Z,83.40
2023-04-09T07:10:21.813Z,87.95
2023-04-09T07:12:51.572Z,86.85
2023-04-09T07:15:18.876Z,93.15
2023-04-09T07:17:46.842Z,83.85
2023-04-09T07:20:18.593Z,89.72
2023-04-09T07:22:48.734Z,84.68
2023-04-09T07:25:18.875Z,85.35
2023-04-09T07:27:46.324Z,92.32
2023-04-09T07:30:18.042Z,90.32
2023-04-09T07:32:45.818Z,89.15
2023-04-09T07:35:13.159Z,92.97
2023-04-09T07:37:40.654Z,95.25
2023-04-09T07:40:08.607Z,91.75
2023-04-09T07:42:40.980Z,92.15
2023-04-09T07:45:08.951Z,89.35
2023-04-09T07:47:36.436Z,96.28
2023-04-09T07:50:04.026Z,96.15
2023-04-09T07:52:31.341Z,99.43
2023-04-09T07:54:58.873Z,97.70
2023-04-09T07:57:28.796Z,99.78
2023-04-09T07:59:59.135Z,98.28
2023-04-09T08:02:29.409Z,97.82
2023-04-09T08:05:08.178Z,101.22
2023-04-09T08:07:38.665Z,104.53
2023-04-09T08:10:07.287Z,102.75
2023-04-09T08:12:43.859Z,108.63
2023-04-09T08:15:12.868Z,99.88
2023-04-09T08:17:48.091Z,99.80
2023-04-09T08:20:17.132Z,98.63
2023-04-09T08:22:45.480Z,102.60
2023-04-09T08:25:14.069Z,102.10
2023-04-09T08:27:43.703Z,100.20
2023-04-09T08:30:11.824Z,101.18
2023-04-09T08:32:40.626Z,96.97
2023-04-09T08:35:11.028Z,100.07
2023-04-09T08:37:42.643Z,94.85
2023-04-09T08:40:12.005Z,95.33
2023-04-09T08:42:48.031Z,103.68
2023-04-09T08:45:19.906Z,104.55
2023-04-09T08:47:50.744Z,102.63
2023-04-09T08:50:20.597Z,97.60
2023-04-09T08:53:19.260Z,98.35
2023-04-09T08:55:56.273Z,95.97
2023-04-09T08:58:27.116Z,97.53
2023-04-09T09:00:54.681Z,88.47
2023-04-09T09:03:22.220Z,77.57
2023-04-09T09:05:50.457Z,72.60
2023-04-09T09:08:43.705Z,69.35
2023-04-09T09:13:41.044Z,67.28
2023-04-09T09:16:18.828Z,62.95
2023-04-09T09:18:50.193Z,64.10
2023-04-09T09:27:13.240Z,71.07
2023-04-09T09:29:50.680Z,68.25
2023-04-09T09:32:24.593Z,63.05
2023-04-09T09:35:06.306Z,64.70
2023-04-09T09:37:36.462Z,62.70
2023-04-09T09:40:04.623Z,64.20
2023-04-09T09:42:33.048Z,59.80
2023-04-09T09:45:02.224Z,66.10
2023-04-09T09:47:30.483Z,59.63
2023-04-09T09:49:58.481Z,61.63
2023-04-09T09:52:31.660Z,65.18
2023-04-09T09:55:00.187Z,60.80
2023-04-09T09:57:30.704Z,60.38
2023-04-09T10:00:04.253Z,58.33
2023-04-09T10:02:49.563Z,61.60
2023-04-09T10:05:17.508Z,58.15
2023-04-09T10:07:47.829Z,59.58
2023-04-09T10:10:16.000Z,57.47
2023-04-09T10:12:47.228Z,59.42
2023-04-09T10:15:23.714Z,61.60
2023-04-09T10:17:56.105Z,58.88
2023-04-09T10:20:50.064Z,59.45
2023-04-09T10:23:57.035Z,59.92
2023-04-09T10:26:30.241Z,58.20
2023-04-09T10:29:29.326Z,58.20
2023-04-09T10:32:23.084Z,56.58
2023-04-09T10:34:53.112Z,54.60
2023-04-09T10:37:32.119Z,56.55
2023-04-09T10:40:02.836Z,56.38
2023-04-09T10:42:33.586Z,57.90
2023-04-09T10:45:18.821Z,48.22
2023-04-09T10:47:51.846Z,49.30
2023-04-09T10:50:39.161Z,51.03
2023-04-09T10:53:18.579Z,49.45
2023-04-09T10:55:52.737Z,53.72
2023-04-09T10:58:29.686Z,50.40
2023-04-09T11:01:13.351Z,49.80
2023-04-09T11:03:51.575Z,49.90
2023-04-09T11:06:23.003Z,49.75
2023-04-09T11:08:59.426Z,48.65
2023-04-09T11:11:28.248Z,48.72
2023-04-09T11:14:01.797Z,47.88
2023-04-09T11:16:35.791Z,48.60
2023-04-09T11:19:06.071Z,47.85
2023-04-09T11:21:44.289Z,49.03
2023-04-09T11:24:17.766Z,44.03
2023-04-09T11:26:49.925Z,47.45
2023-04-09T11:29:25.275Z,45.25
2023-04-09T11:31:52.880Z,45.72
2023-04-09T11:34:33.498Z,41.88
2023-04-09T11:37:05.527Z,46.38
2023-04-09T11:39:42.655Z,42.33
2023-04-09T11:42:19.708Z,41.08
2023-04-09T11:44:47.166Z,41.42
2023-04-09T11:47:16.186Z,37.33
2023-04-09T11:49:47.536Z,38.95
2023-04-09T11:52:36.617Z,35.15
2023-04-09T11:55:07.645Z,36.40
2023-04-09T11:58:04.308Z,40.05
2023-04-09T12:00:41.614Z,36.67
2023-04-09T12:03:17.661Z,39.55
2023-04-09T12:05:54.882Z,35.38
2023-04-09T12:08:25.499Z,34.00
2023-04-09T12:10:53.801Z,33.55
2023-04-09T12:13:31.809Z,31.90
2023-04-09T12:16:03.178Z,30.52
2023-04-09T12:18:30.843Z,33.75
2023-04-09T12:20:58.239Z,32.65
2023-04-09T12:23:25.852Z,29.90
2023-04-09T12:25:55.187Z,31.27
2023-04-09T12:28:22.548Z,30.58
2023-04-09T12:30:53.977Z,31.85
2023-04-09T12:33:21.908Z,32.58
2023-04-09T12:35:49.389Z,30.50
2023-04-09T12:38:19.970Z,35.67
2023-04-09T12:40:58.913Z,29.63
2023-04-09T12:43:28.897Z,28.23
2023-04-09T12:46:00.794Z,29.23
2023-04-09T12:48:28.509Z,27.17
2023-04-09T12:50:58.935Z,24.83
2023-04-09T12:53:26.298Z,24.80
2023-04-09T12:55:54.745Z,27.00
2023-04-09T12:58:23.489Z,24.30
2023-04-09T13:01:02.557Z,27.88
2023-04-09T13:03:31.181Z,25.50
2023-04-09T13:06:00.175Z,26.92
2023-04-09T13:08:30.609Z,28.00
2023-04-09T13:11:08.531Z,27.42
2023-04-09T13:13:36.053Z,27.65
2023-04-09T13:16:13.561Z,26.20
2023-04-09T13:18:49.600Z,25.50
2023-04-09T13:21:21.008Z,24.00
2023-04-09T13:23:53.476Z,22.88
2023-04-09T13:26:22.805Z,23.83
2023-04-09T13:28:53.772Z,25.10
2023-04-09T13:31:26.752Z,22.25
2023-04-09T13:33:59.017Z,21.20
2023-04-09T13:36:29.946Z,18.67
2023-04-09T13:39:07.015Z,18.35
2023-04-09T13:41:43.466Z,23.00
2023-04-09T13:46:54.540Z,22.27
2023-04-09T13:49:35.531Z,21.48
2023-04-09T13:52:18.645Z,21.73
2023-04-09T13:55:13.873Z,19.13
2023-04-09T13:57:55.485Z,19.02
2023-04-09T14:00:29.913Z,19.55
2023-04-09T14:03:13.512Z,19.48
2023-04-09T14:05:44.988Z,20.20
2023-04-09T14:08:19.776Z,19.23
2023-04-09T14:13:44.959Z,18.27
2023-04-09T14:16:23.605Z,17.92
2023-04-09T14:18:53.601Z,19.45
2023-04-09T14:21:30.821Z,17.35
2023-04-09T14:24:05.979Z,15.93
2023-04-09T14:26:37.882Z,18.85
2023-04-09T14:29:13.998Z,20.58
2023-04-09T14:31:50.365Z,17.48
2023-04-09T14:34:21.673Z,17.05
2023-04-09T14:37:04.289Z,16.52
2023-04-09T14:39:35.738Z,17.00
2023-04-09T14:42:03.240Z,17.13
2023-04-09T14:44:40.882Z,16.08
2023-04-09T14:47:17.570Z,18.85
2023-04-09T14:52:59.092Z,15.20
2023-04-09T14:55:37.709Z,15.48
2023-04-09T14:58:10.079Z,16.13
2023-04-09T15:03:29.104Z,18.23
2023-04-09T15:06:00.205Z,15.95
2023-04-09T15:08:31.053Z,16.48
2023-04-09T15:10:58.508Z,14.52
2023-04-09T15:13:27.014Z,14.88
2023-04-09T15:15:56.663Z,14.85
2023-04-09T15:18:27.747Z,15.32
2023-04-09T15:20:55.490Z,15.73
2023-04-09T15:23:24.058Z,18.10
2023-04-09T15:25:54.094Z,16.88
2023-04-09T15:28:25.074Z,16.48
2023-04-09T15:31:07.361Z,14.85
2023-04-09T15:34:07.717Z,16.90
2023-04-09T15:36:35.642Z,13.30
2023-04-09T15:39:05.012Z,13.57
2023-04-09T15:41:33.798Z,14.55
2023-04-09T15:50:14.227Z,15.45
2023-04-09T15:52:50.806Z,14.68
2023-04-09T15:55:53.234Z,13.20
2023-04-09T15:58:25.011Z,14.13
2023-04-09T16:01:00.776Z,14.93
2023-04-09T16:06:35.937Z,13.63
2023-04-09T16:09:03.468Z,15.07
2023-04-09T16:11:30.833Z,14.02
2023-04-09T16:14:00.542Z,19.40
2023-04-09T16:16:29.725Z,16.27
2023-04-09T16:18:59.176Z,16.77
2023-04-09T16:24:16.174Z,15.88
2023-04-09T16:26:47.218Z,15.55
2023-04-09T16:32:28.875Z,15.68
2023-04-09T16:37:46.736Z,15.48
2023-04-09T16:40:24.618Z,15.18
2023-04-09T16:46:16.541Z,15.23
2023-04-09T16:48:46.662Z,14.32
2023-04-09T16:51:22.203Z,15.82
2023-04-09T16:53:49.645Z,16.10
2023-04-09T16:56:17.137Z,13.00
2023-04-09T16:58:48.579Z,13.57
2023-04-09T17:01:16.231Z,14.75
2023-04-09T17:03:44.395Z,14.57
2023-04-09T17:06:13.856Z,12.10
2023-04-09T17:08:42.302Z,14.38
2023-04-09T17:11:10.303Z,12.70
2023-04-09T17:13:40.411Z,15.50
2023-04-09T17:16:14.801Z,14.35
2023-04-09T17:18:45.480Z,15.23
2023-04-09T17:23:58.485Z,17.70
2023-04-09T17:26:28.563Z,16.13
2023-04-09T17:28:58.329Z,16.80
2023-04-09T17:31:32.094Z,14.38
2023-04-09T17:34:08.617Z,17.27
2023-04-09T17:36:42.097Z,16.08
2023-04-09T17:39:16.215Z,18.05
2023-04-09T17:42:05.554Z,15.48
2023-04-09T17:47:40.521Z,17.92
2023-04-09T17:50:45.548Z,16.75
2023-04-09T17:53:14.578Z,16.27
2023-04-09T17:58:36.382Z,18.15
2023-04-09T18:01:08.420Z,17.38
2023-04-09T18:03:36.936Z,15.32
2023-04-09T18:08:51.561Z,15.63
2023-04-09T18:11:19.273Z,14.27
2023-04-09T18:13:46.685Z,16.80
2023-04-09T18:16:14.310Z,15.98
2023-04-09T18:18:42.312Z,15.15
2023-04-09T18:21:12.597Z,16.92
2023-04-09T18:26:48.113Z,16.67
2023-04-09T18:32:36.819Z,15.23
2023-04-09T18:35:17.722Z,16.65
2023-04-09T18:37:45.799Z,14.98
2023-04-09T18:40:17.840Z,14.95
2023-04-09T18:42:45.254Z,14.27
2023-04-09T18:45:12.689Z,15.18
2023-04-09T18:47:40.798Z,14.88
2023-04-09T18:50:09.088Z,18.00
2023-04-09T18:52:38.937Z,14.00
2023-04-09T18:55:06.744Z,15.15
2023-04-09T18:57:47.392Z,15.60
2023-04-09T19:00:21.932Z,14.20
2023-04-09T19:02:54.281Z,15.77
2023-04-09T19:05:22.084Z,13.07
2023-04-09T19:07:50.073Z,13.73
2023-04-09T19:10:18.320Z,14.82
2023-04-09T19:12:54.126Z,14.73
2023-04-09T19:15:32.841Z,13.57
2023-04-09T19:18:23.829Z,14.82
2023-04-09T19:20:51.376Z,15.73
2023-04-09T19:23:21.375Z,15.07
2023-04-09T19:28:48.560Z,15.88
2023-04-09T19:31:25.004Z,17.40
2023-04-09T19:37:12.425Z,14.90
2023-04-09T19:42:43.619Z,13.82
2023-04-09T19:45:20.284Z,15.95
2023-04-09T19:50:52.527Z,15.48
2023-04-09T19:56:41.638Z,14.52
2023-04-09T19:59:49.779Z,14.02
2023-04-09T20:02:45.937Z,14.18
2023-04-09T20:08:12.809Z,13.10
2023-04-09T20:10:47.337Z,12.93
2023-04-09T20:13:15.348Z,14.48
2023-04-09T20:15:42.925Z,15.43
2023-04-09T20:18:10.341Z,15.32
2023-04-09T20:20:37.797Z,13.57
2023-04-09T20:23:05.626Z,15.00
2023-04-09T20:25:40.436Z,14.35
2023-04-09T20:28:11.052Z,13.80
2023-04-09T20:30:47.889Z,14.70
2023-04-09T20:33:27.592Z,12.88
2023-04-09T20:36:11.556Z,16.00
2023-04-09T20:41:29.800Z,15.77
2023-04-09T20:44:08.811Z,15.70
2023-04-09T20:46:46.614Z,13.18
2023-04-09T20:49:31.948Z,13.77
2023-04-09T20:52:02.059Z,17.05
2023-04-09T20:54:36.832Z,17.85
2023-04-09T20:57:20.067Z,15.20
2023-04-09T21:00:19.197Z,15.85
2023-04-09T21:02:57.135Z,15.35
2023-04-09T21:05:48.795Z,16.33
2023-04-09T21:08:32.615Z,16.05
2023-04-09T21:11:09.535Z,16.38
2023-04-09T21:13:53.026Z,14.95
2023-04-09T21:16:23.093Z,15.68
2023-04-09T21:18:51.857Z,15.05
2023-04-09T21:24:16.624Z,14.70
2023-04-09T21:26:51.773Z,16.77
2023-04-09T21:29:21.331Z,16.58
2023-04-09T21:31:49.914Z,13.45
2023-04-09T21:34:20.547Z,16.40
2023-04-09T21:36:50.050Z,16.15
2023-04-09T21:45:23.381Z,15.98
2023-04-09T21:48:08.996Z,16.77
2023-04-09T21:53:36.133Z,16.98
2023-04-09T21:56:29.171Z,17.15
2023-04-09T21:58:57.701Z,18.00
2023-04-09T22:01:29.919Z,17.50
2023-04-09T22:04:02.849Z,18.60
2023-04-09T22:10:01.956Z,16.85
2023-04-09T22:12:37.261Z,18.15
2023-04-09T22:15:07.629Z,18.40
2023-04-09T22:17:35.727Z,19.52
2023-04-09T22:20:10.864Z,18.83
2023-04-09T22:25:52.569Z,16.08
2023-04-09T22:28:20.245Z,28.95
2023-04-09T22:37:02.358Z,18.48
2023-04-09T22:39:32.505Z,18.63
2023-04-09T22:42:23.565Z,15.95
2023-04-09T22:45:34.091Z,18.70
2023-04-09T22:48:47.773Z,18.35
2023-04-09T22:54:15.786Z,20.10
2023-04-09T22:56:57.929Z,19.63
2023-04-09T22:59:39.071Z,17.65
2023-04-09T23:02:12.313Z,18.23
2023-04-09T23:04:39.699Z,19.00
2023-04-09T23:07:09.676Z,18.45
2023-04-09T23:09:37.349Z,18.27
2023-04-09T23:12:07.092Z,18.95
2023-04-09T23:14:39.137Z,17.15
2023-04-09T23:17:17.227Z,17.52
2023-04-09T23:20:10.347Z,19.05
2023-04-09T23:22:53.002Z,18.77
2023-04-09T23:28:17.139Z,16.63
2023-04-09T23:30:50.649Z,17.13
2023-04-09T23:33:35.410Z,18.15
2023-04-09T23:36:06.245Z,17.15
2023-04-09T23:38:49.583Z,17.42
2023-04-09T23:44:08.210Z,17.75
2023-04-09T23:46:38.939Z,19.08
2023-04-09T23:49:45.041Z,19.58
2023-04-09T23:52:16.526Z,18.27
2023-04-09T23:54:54.298Z,17.92
2023-04-09T23:57:31.705Z,19.17
